A- A+ FrançaisEnglishEspañol中国

Services sur Internet Soldes sur Internet Des idées de cadeaux Météo Météo aéro

La météo à : Autours de vous Tarbes-Lourdes-PyrénéesLille-Marcq-En-Baroeul Lille-Lesquin Paris-Charles-De-Gaulle

manche à air

La météo aéronautique pour les pilotes, la préparation du vol avec les METAR (METeorological Aerodrome Report, message d'observation des conditions météorologiques pour l'aviation) et Les TAF (Terminal Aerodrome Forecast : message de prévision à court terme des conditions météorologiques pour l'aviation). Et les autres ressources comme les VAC (Visual Approch Chart) et les NOTAM (Notice To Airman) pour préprer les vols.

Aéroport Skelleftea (Suède) / OACI ESNS/ IATA SFT

L'altitude de l'aéroport Skelleftea est de 48 m = 157 ft. Il est situé à proximité de Skellefteå (Suède). La météo générale à 5 jours est disponible pour Skellefteå Kommun situé à 14.2 km.

METAR de l'aéroport Skelleftea - ESNS

ESNS 291020Z VRB02KT 9999 DZ SCT006 BKN025 08/08 Q0993

Décodage du METAR de l'aéroport Skelleftea (SE)

METAR émis par ESNS le dimanche 29 septembre 2019 à 10:20 heure TU. Attention ce METAR est obsolète car il a été émis il y a 14 heure et 12 minutes.

La visibilité est de supérieure à 10 km = supérieure à 6.2 sm.

La température est de 8°C = 46 °F et le point rosée est de 8°C = 46 °F . Ce qui correspond à 100% d'humidité relative.

Le QNH est de 993 hPa = 29.32 inHg

Vent de 2 kt = 4 km/h, orienté à °.

Nuages : Nuages épars à 600 ft = 180 mètres. Couverture nuageuse fragmentée à 2500 ft = 760 mètres.

DZ

TAF de l'aéroport Skelleftea - ESNS

ESNS 290830Z 2909/2918 19005KT 9999 SCT010 OVC030 PROB40 2909/2913 BKN008

ESNS 290830Z 2909/2918 19005KT 9999 nuages épars à 010 couverture nuageuse soudée à 030 probabilité de 40% d'avoir 2909/2913 couverture nuageuse fragmentée à 008

Aéroport à proximité de Skelleftea

Météo générale à 5 jours à Skellefteå Kommun (14.2 km)Aéroport Pitea (86 km)Aéroport Umea (100 km)Aéroport Lycksele (113 km)Aéroport Lulea Kallax (113 km)Aéroport Ardvidsjaur (136 km)Aéroport Kalajoki (139 km)

Vue aérienne de l'aéroport Skelleftea

NOTAM de l'aéroport Skelleftea

Les NOTAM sont fournis sans aucune garantie de leur actualité. Le pilote est le seul responsable de la vérification de sa validité avant de l'utiliser opérationnellement pour préparer un vol ou l'utiliser lors de sa navigation.

Pas de NOTAM

Sources des données